sensor_id;sensor_type;location;lat;lon;timestamp;P1;P2;P0
69222;PMS7003;56514;51.816;-0.026;2023-04-06T00:00:07;21.50;20.25;13.75
69222;PMS7003;56514;51.816;-0.026;2023-04-06T00:03:17;19.00;19.00;13.75
69222;PMS7003;56514;51.816;-0.026;2023-04-06T00:06:04;14.00;14.00;11.50
69222;PMS7003;56514;51.816;-0.026;2023-04-06T00:08:49;17.25;17.00;11.50
69222;PMS7003;56514;51.816;-0.026;2023-04-06T00:11:34;20.25;19.00;14.50
69222;PMS7003;56514;51.816;-0.026;2023-04-06T00:14:19;14.50;14.50;10.00
69222;PMS7003;56514;51.816;-0.026;2023-04-06T00:17:04;13.50;13.50;10.75
69222;PMS7003;56514;51.816;-0.026;2023-04-06T00:19:49;22.25;19.75;13.50
69222;PMS7003;56514;51.816;-0.026;2023-04-06T00:22:34;16.25;16.25;13.00
69222;PMS7003;56514;51.816;-0.026;2023-04-06T00:25:19;16.75;16.75;12.50
69222;PMS7003;56514;51.816;-0.026;2023-04-06T00:28:04;23.25;21.50;14.75
69222;PMS7003;56514;51.816;-0.026;2023-04-06T00:30:49;20.00;20.00;14.00
69222;PMS7003;56514;51.816;-0.026;2023-04-06T00:33:34;15.25;15.25;10.75
69222;PMS7003;56514;51.816;-0.026;2023-04-06T00:36:19;13.00;13.00;10.50
69222;PMS7003;56514;51.816;-0.026;2023-04-06T00:39:04;14.00;13.25;9.25
69222;PMS7003;56514;51.816;-0.026;2023-04-06T00:41:50;14.25;13.75;11.50
69222;PMS7003;56514;51.816;-0.026;2023-04-06T00:44:37;22.50;21.00;13.50
69222;PMS7003;56514;51.816;-0.026;2023-04-06T00:47:22;14.25;11.00;9.25
69222;PMS7003;56514;51.816;-0.026;2023-04-06T00:50:09;13.00;11.50;7.75
69222;PMS7003;56514;51.816;-0.026;2023-04-06T00:52:54;13.00;13.00;10.00
69222;PMS7003;56514;51.816;-0.026;2023-04-06T00:55:39;15.75;15.75;10.75
69222;PMS7003;56514;51.816;-0.026;2023-04-06T00:58:24;11.75;11.75;9.25
69222;PMS7003;56514;51.816;-0.026;2023-04-06T01:01:10;11.25;10.50;8.00
69222;PMS7003;56514;51.816;-0.026;2023-04-06T01:03:55;13.25;12.00;9.00
69222;PMS7003;56514;51.816;-0.026;2023-04-06T01:06:40;16.25;16.25;11.00
69222;PMS7003;56514;51.816;-0.026;2023-04-06T01:09:29;11.50;11.50;8.00
69222;PMS7003;56514;51.816;-0.026;2023-04-06T01:12:14;13.75;13.75;9.00
69222;PMS7003;56514;51.816;-0.026;2023-04-06T01:14:59;8.00;8.00;6.75
69222;PMS7003;56514;51.816;-0.026;2023-04-06T01:17:44;14.50;12.50;9.25
69222;PMS7003;56514;51.816;-0.026;2023-04-06T01:20:29;10.50;10.50;7.50
69222;PMS7003;56514;51.816;-0.026;2023-04-06T01:23:14;15.00;13.50;10.00
69222;PMS7003;56514;51.816;-0.026;2023-04-06T01:25:59;10.50;10.50;7.75
69222;PMS7003;56514;51.816;-0.026;2023-04-06T01:28:45;7.50;7.50;5.75
69222;PMS7003;56514;51.816;-0.026;2023-04-06T01:31:29;13.00;13.00;10.00
69222;PMS7003;56514;51.816;-0.026;2023-04-06T01:34:15;10.50;10.50;7.25
69222;PMS7003;56514;51.816;-0.026;2023-04-06T01:37:00;7.25;7.25;5.50
69222;PMS7003;56514;51.816;-0.026;2023-04-06T01:39:46;7.50;7.50;6.00
69222;PMS7003;56514;51.816;-0.026;2023-04-06T01:42:31;8.50;8.50;7.50
69222;PMS7003;56514;51.816;-0.026;2023-04-06T01:45:15;12.50;10.75;7.50
69222;PMS7003;56514;51.816;-0.026;2023-04-06T01:48:00;11.00;11.00;7.00
69222;PMS7003;56514;51.816;-0.026;2023-04-06T01:50:45;6.75;6.75;4.25
69222;PMS7003;56514;51.816;-0.026;2023-04-06T01:53:30;7.25;7.25;6.50
69222;PMS7003;56514;51.816;-0.026;2023-04-06T01:56:15;6.00;6.00;5.50
69222;PMS7003;56514;51.816;-0.026;2023-04-06T01:59:00;6.50;6.50;5.00
69222;PMS7003;56514;51.816;-0.026;2023-04-06T02:01:45;5.50;5.50;4.75
69222;PMS7003;56514;51.816;-0.026;2023-04-06T02:04:29;6.00;6.00;4.25
69222;PMS7003;56514;51.816;-0.026;2023-04-06T02:07:14;4.25;4.25;4.00
69222;PMS7003;56514;51.816;-0.026;2023-04-06T02:10:00;4.75;4.75;4.00
69222;PMS7003;56514;51.816;-0.026;2023-04-06T02:12:44;4.25;4.25;4.00
69222;PMS7003;56514;51.816;-0.026;2023-04-06T02:15:29;6.50;6.50;4.75
69222;PMS7003;56514;51.816;-0.026;2023-04-06T02:18:14;4.25;4.25;4.00
69222;PMS7003;56514;51.816;-0.026;2023-04-06T02:21:00;4.75;4.75;4.00
69222;PMS7003;56514;51.816;-0.026;2023-04-06T02:23:45;4.75;4.75;4.00
69222;PMS7003;56514;51.816;-0.026;2023-04-06T02:26:31;5.00;5.00;4.25
69222;PMS7003;56514;51.816;-0.026;2023-04-06T02:29:16;2.50;2.50;2.00
69222;PMS7003;56514;51.816;-0.026;2023-04-06T02:32:00;2.67;2.67;2.00
69222;PMS7003;56514;51.816;-0.026;2023-04-06T02:34:45;2.50;2.50;2.00
69222;PMS7003;56514;51.816;-0.026;2023-04-06T02:37:30;2.00;2.00;2.00
69222;PMS7003;56514;51.816;-0.026;2023-04-06T02:40:15;1.00;1.00;1.00
69222;PMS7003;56514;51.816;-0.026;2023-04-06T02:43:00;3.00;3.00;2.00
69222;PMS7003;56514;51.816;-0.026;2023-04-06T02:45:44;1.00;1.00;0.25
69222;PMS7003;56514;51.816;-0.026;2023-04-06T02:48:30;1.50;1.50;1.25
69222;PMS7003;56514;51.816;-0.026;2023-04-06T02:51:14;2.00;2.00;2.00
69222;PMS7003;56514;51.816;-0.026;2023-04-06T02:54:00;2.00;2.00;1.50
69222;PMS7003;56514;51.816;-0.026;2023-04-06T02:56:44;1.75;1.75;1.25
69222;PMS7003;56514;51.816;-0.026;2023-04-06T02:59:30;3.50;2.00;1.00
69222;PMS7003;56514;51.816;-0.026;2023-04-06T03:02:15;2.50;2.50;2.50
69222;PMS7003;56514;51.816;-0.026;2023-04-06T03:04:59;0.00;0.00;0.00
69222;PMS7003;56514;51.816;-0.026;2023-04-06T03:07:45;1.00;1.00;1.00
69222;PMS7003;56514;51.816;-0.026;2023-04-06T03:10:29;1.00;1.00;1.00
69222;PMS7003;56514;51.816;-0.026;2023-04-06T03:13:14;0.00;0.00;0.00
69222;PMS7003;56514;51.816;-0.026;2023-04-06T03:16:00;1.25;1.25;1.00
69222;PMS7003;56514;51.816;-0.026;2023-04-06T03:18:45;1.00;1.00;1.00
69222;PMS7003;56514;51.816;-0.026;2023-04-06T03:21:31;0.00;0.00;0.00
69222;PMS7003;56514;51.816;-0.026;2023-04-06T03:24:16;1.25;1.25;1.00
69222;PMS7003;56514;51.816;-0.026;2023-04-06T03:27:01;0.25;0.25;0.25
69222;PMS7003;56514;51.816;-0.026;2023-04-06T03:29:45;1.00;1.00;1.00
69222;PMS7003;56514;51.816;-0.026;2023-04-06T03:32:30;1.75;1.75;1.50
69222;PMS7003;56514;51.816;-0.026;2023-04-06T03:35:15;1.75;1.75;1.75
69222;PMS7003;56514;51.816;-0.026;2023-04-06T03:38:00;1.00;1.00;0.50
69222;PMS7003;56514;51.816;-0.026;2023-04-06T03:40:44;1.00;1.00;1.00
69222;PMS7003;56514;51.816;-0.026;2023-04-06T03:43:30;0.25;0.25;0.00
69222;PMS7003;56514;51.816;-0.026;2023-04-06T03:46:14;1.00;1.00;1.00
69222;PMS7003;56514;51.816;-0.026;2023-04-06T03:49:00;3.50;2.00;1.75
69222;PMS7003;56514;51.816;-0.026;2023-04-06T03:51:45;4.00;4.00;1.50
69222;PMS7003;56514;51.816;-0.026;2023-04-06T03:54:29;1.00;1.00;1.00
69222;PMS7003;56514;51.816;-0.026;2023-04-06T03:57:14;1.00;1.00;1.00
69222;PMS7003;56514;51.816;-0.026;2023-04-06T04:00:00;1.00;1.00;1.00
69222;PMS7003;56514;51.816;-0.026;2023-04-06T04:02:45;0.50;0.50;0.25
69222;PMS7003;56514;51.816;-0.026;2023-04-06T04:05:30;3.50;3.50;2.00
69222;PMS7003;56514;51.816;-0.026;2023-04-06T04:08:16;0.75;0.75;0.50
69222;PMS7003;56514;51.816;-0.026;2023-04-06T04:11:01;0.75;0.75;0.75
69222;PMS7003;56514;51.816;-0.026;2023-04-06T04:13:47;0.75;0.75;0.75
69222;PMS7003;56514;51.816;-0.026;2023-04-06T04:16:32;1.25;1.25;1.25
69222;PMS7003;56514;51.816;-0.026;2023-04-06T04:19:17;1.25;1.25;1.25
69222;PMS7003;56514;51.816;-0.026;2023-04-06T04:22:02;2.00;2.00;2.00
69222;PMS7003;56514;51.816;-0.026;2023-04-06T04:24:49;2.00;2.00;1.75
69222;PMS7003;56514;51.816;-0.026;2023-04-06T04:27:34;4.00;4.00;2.50
69222;PMS7003;56514;51.816;-0.026;2023-04-06T04:30:19;2.50;2.50;2.00
69222;PMS7003;56514;51.816;-0.026;2023-04-06T04:33:04;4.75;4.75;4.00
69222;PMS7003;56514;51.816;-0.026;2023-04-06T04:35:50;4.00;4.00;4.00
69222;PMS7003;56514;51.816;-0.026;2023-04-06T04:38:35;3.50;3.50;2.50
69222;PMS7003;56514;51.816;-0.026;2023-04-06T04:41:20;4.75;4.75;4.75
69222;PMS7003;56514;51.816;-0.026;2023-04-06T04:44:05;5.50;5.50;4.25
69222;PMS7003;56514;51.816;-0.026;2023-04-06T04:46:49;4.50;4.50;3.50
69222;PMS7003;56514;51.816;-0.026;2023-04-06T04:49:34;4.50;4.50;3.50
69222;PMS7003;56514;51.816;-0.026;2023-04-06T04:52:19;6.00;4.25;2.50
69222;PMS7003;56514;51.816;-0.026;2023-04-06T04:55:04;4.00;4.00;3.50
69222;PMS7003;56514;51.816;-0.026;2023-04-06T04:57:50;7.25;6.50;4.00
69222;PMS7003;56514;51.816;-0.026;2023-04-06T05:00:34;10.50;9.00;5.00
69222;PMS7003;56514;51.816;-0.026;2023-04-06T05:03:21;4.75;4.75;4.00
69222;PMS7003;56514;51.816;-0.026;2023-04-06T05:06:07;4.75;4.75;3.50
69222;PMS7003;56514;51.816;-0.026;2023-04-06T05:08:52;5.00;5.00;4.25
69222;PMS7003;56514;51.816;-0.026;2023-04-06T05:11:37;6.25;5.75;4.75
69222;PMS7003;56514;51.816;-0.026;2023-04-06T05:14:21;5.50;5.50;5.00
69222;PMS7003;56514;51.816;-0.026;2023-04-06T05:17:06;4.25;4.25;3.75
69222;PMS7003;56514;51.816;-0.026;2023-04-06T05:19:52;5.00;5.00;4.50
69222;PMS7003;56514;51.816;-0.026;2023-04-06T05:22:37;6.50;6.50;6.00
69222;PMS7003;56514;51.816;-0.026;2023-04-06T05:25:22;7.75;6.50;5.00
69222;PMS7003;56514;51.816;-0.026;2023-04-06T05:28:07;5.50;5.50;5.00
69222;PMS7003;56514;51.816;-0.026;2023-04-06T05:30:52;7.75;7.75;4.50
69222;PMS7003;56514;51.816;-0.026;2023-04-06T05:33:37;5.00;5.00;4.75
69222;PMS7003;56514;51.816;-0.026;2023-04-06T05:36:22;8.00;5.75;5.50
69222;PMS7003;56514;51.816;-0.026;2023-04-06T05:39:07;7.00;7.00;5.00
69222;PMS7003;56514;51.816;-0.026;2023-04-06T05:41:52;7.75;7.75;4.75
69222;PMS7003;56514;51.816;-0.026;2023-04-06T05:44:37;5.50;5.50;5.00
69222;PMS7003;56514;51.816;-0.026;2023-04-06T05:47:23;7.00;5.00;4.00
69222;PMS7003;56514;51.816;-0.026;2023-04-06T05:50:08;6.50;6.50;5.50
69222;PMS7003;56514;51.816;-0.026;2023-04-06T05:52:53;4.75;4.75;4.00
69222;PMS7003;56514;51.816;-0.026;2023-04-06T05:55:39;10.50;5.50;5.00
69222;PMS7003;56514;51.816;-0.026;2023-04-06T05:58:23;8.50;8.50;7.00
69222;PMS7003;56514;51.816;-0.026;2023-04-06T06:01:08;5.00;5.00;5.00
69222;PMS7003;56514;51.816;-0.026;2023-04-06T06:03:54;8.00;7.00;4.75
69222;PMS7003;56514;51.816;-0.026;2023-04-06T06:06:39;9.50;8.00;7.00
69222;PMS7003;56514;51.816;-0.026;2023-04-06T06:09:24;9.50;7.75;4.50
69222;PMS7003;56514;51.816;-0.026;2023-04-06T06:12:09;5.00;5.00;4.25
69222;PMS7003;56514;51.816;-0.026;2023-04-06T06:14:54;6.75;6.75;2.50
69222;PMS7003;56514;51.816;-0.026;2023-04-06T06:17:40;5.50;5.50;4.25
69222;PMS7003;56514;51.816;-0.026;2023-04-06T06:20:25;8.00;8.00;6.00
69222;PMS7003;56514;51.816;-0.026;2023-04-06T06:23:10;5.50;5.50;4.75
69222;PMS7003;56514;51.816;-0.026;2023-04-06T06:25:55;11.75;8.75;5.50
69222;PMS7003;56514;51.816;-0.026;2023-04-06T06:28:42;6.50;6.50;6.50
69222;PMS7003;56514;51.816;-0.026;2023-04-06T06:31:27;4.50;4.50;4.25
69222;PMS7003;56514;51.816;-0.026;2023-04-06T06:34:12;6.50;6.50;4.75
69222;PMS7003;56514;51.816;-0.026;2023-04-06T06:37:01;7.50;5.50;5.00
69222;PMS7003;56514;51.816;-0.026;2023-04-06T06:39:46;5.00;5.00;4.00
69222;PMS7003;56514;51.816;-0.026;2023-04-06T06:42:31;7.25;7.25;6.00
69222;PMS7003;56514;51.816;-0.026;2023-04-06T06:45:16;8.00;8.00;4.75
69222;PMS7003;56514;51.816;-0.026;2023-04-06T06:48:00;7.50;6.00;4.25
69222;PMS7003;56514;51.816;-0.026;2023-04-06T06:50:46;8.50;8.50;7.25
69222;PMS7003;56514;51.816;-0.026;2023-04-06T06:53:32;7.00;7.00;5.00
69222;PMS7003;56514;51.816;-0.026;2023-04-06T06:56:17;4.75;4.75;4.25
69222;PMS7003;56514;51.816;-0.026;2023-04-06T06:59:02;5.50;5.50;5.00
69222;PMS7003;56514;51.816;-0.026;2023-04-06T07:01:48;4.00;4.00;4.00
69222;PMS7003;56514;51.816;-0.026;2023-04-06T07:04:34;4.75;4.75;4.25
69222;PMS7003;56514;51.816;-0.026;2023-04-06T07:07:19;5.50;5.50;5.00
69222;PMS7003;56514;51.816;-0.026;2023-04-06T07:10:04;4.00;4.00;3.00
69222;PMS7003;56514;51.816;-0.026;2023-04-06T07:12:50;4.00;4.00;3.00
69222;PMS7003;56514;51.816;-0.026;2023-04-06T07:15:35;3.50;2.00;2.00
69222;PMS7003;56514;51.816;-0.026;2023-04-06T07:18:20;5.00;5.00;4.00
69222;PMS7003;56514;51.816;-0.026;2023-04-06T07:21:05;4.50;4.50;4.50
69222;PMS7003;56514;51.816;-0.026;2023-04-06T07:23:49;5.50;5.50;4.25
69222;PMS7003;56514;51.816;-0.026;2023-04-06T07:26:35;2.00;2.00;1.75
69222;PMS7003;56514;51.816;-0.026;2023-04-06T07:29:20;4.50;4.50;4.50
69222;PMS7003;56514;51.816;-0.026;2023-04-06T07:32:04;6.00;5.00;4.25
69222;PMS7003;56514;51.816;-0.026;2023-04-06T07:34:50;3.00;2.00;2.00
69222;PMS7003;56514;51.816;-0.026;2023-04-06T07:37:35;5.00;5.00;4.00
69222;PMS7003;56514;51.816;-0.026;2023-04-06T07:40:20;4.25;4.25;3.00
69222;PMS7003;56514;51.816;-0.026;2023-04-06T07:43:05;4.00;4.00;4.00
69222;PMS7003;56514;51.816;-0.026;2023-04-06T07:45:50;4.00;4.00;4.00
69222;PMS7003;56514;51.816;-0.026;2023-04-06T07:48:35;4.00;4.00;4.00
69222;PMS7003;56514;51.816;-0.026;2023-04-06T07:51:21;6.00;6.00;4.00
69222;PMS7003;56514;51.816;-0.026;2023-04-06T07:54:06;7.25;7.25;4.25
69222;PMS7003;56514;51.816;-0.026;2023-04-06T07:56:51;4.00;4.00;2.50
69222;PMS7003;56514;51.816;-0.026;2023-04-06T07:59:37;5.00;5.00;4.25
69222;PMS7003;56514;51.816;-0.026;2023-04-06T08:02:21;1.75;1.75;1.75
69222;PMS7003;56514;51.816;-0.026;2023-04-06T08:05:07;2.25;2.25;1.75
69222;PMS7003;56514;51.816;-0.026;2023-04-06T08:07:52;4.00;4.00;3.50
69222;PMS7003;56514;51.816;-0.026;2023-04-06T08:10:37;4.00;4.00;4.00
69222;PMS7003;56514;51.816;-0.026;2023-04-06T08:13:22;7.00;7.00;5.00
69222;PMS7003;56514;51.816;-0.026;2023-04-06T08:16:07;3.50;3.50;2.00
69222;PMS7003;56514;51.816;-0.026;2023-04-06T08:18:52;3.25;3.25;3.00
69222;PMS7003;56514;51.816;-0.026;2023-04-06T08:21:37;5.00;5.00;2.50
69222;PMS7003;56514;51.816;-0.026;2023-04-06T08:24:22;7.00;7.00;4.25
69222;PMS7003;56514;51.816;-0.026;2023-04-06T08:27:08;7.00;5.00;4.00
69222;PMS7003;56514;51.816;-0.026;2023-04-06T08:29:52;1.50;1.50;1.25
69222;PMS7003;56514;51.816;-0.026;2023-04-06T08:32:37;2.50;2.50;1.75
69222;PMS7003;56514;51.816;-0.026;2023-04-06T08:35:22;2.00;2.00;1.75
69222;PMS7003;56514;51.816;-0.026;2023-04-06T08:38:08;1.75;1.75;1.75
69222;PMS7003;56514;51.816;-0.026;2023-04-06T08:40:53;3.00;3.00;2.00
69222;PMS7003;56514;51.816;-0.026;2023-04-06T08:43:42;3.50;1.50;1.50
69222;PMS7003;56514;51.816;-0.026;2023-04-06T08:46:41;3.25;3.00;2.00
69222;PMS7003;56514;51.816;-0.026;2023-04-06T08:49:26;2.75;2.75;2.00
69222;PMS7003;56514;51.816;-0.026;2023-04-06T08:52:12;1.75;1.75;1.00
69222;PMS7003;56514;51.816;-0.026;2023-04-06T08:54:57;2.00;2.00;1.25
69222;PMS7003;56514;51.816;-0.026;2023-04-06T08:57:43;2.00;2.00;1.50
69222;PMS7003;56514;51.816;-0.026;2023-04-06T09:00:30;0.25;0.25;0.00
69222;PMS7003;56514;51.816;-0.026;2023-04-06T09:03:18;2.00;2.00;2.00
69222;PMS7003;56514;51.816;-0.026;2023-04-06T09:06:05;1.50;1.50;1.50
69222;PMS7003;56514;51.816;-0.026;2023-04-06T09:08:51;4.00;4.00;4.00
69222;PMS7003;56514;51.816;-0.026;2023-04-06T09:11:42;4.00;4.00;3.00
69222;PMS7003;56514;51.816;-0.026;2023-04-06T09:14:35;1.00;1.00;1.00
69222;PMS7003;56514;51.816;-0.026;2023-04-06T09:17:22;1.00;1.00;1.00
69222;PMS7003;56514;51.816;-0.026;2023-04-06T09:20:10;2.00;2.00;1.25
69222;PMS7003;56514;51.816;-0.026;2023-04-06T09:22:55;1.25;1.25;1.00
69222;PMS7003;56514;51.816;-0.026;2023-04-06T09:25:40;1.00;1.00;1.00
69222;PMS7003;56514;51.816;-0.026;2023-04-06T09:28:25;1.00;1.00;0.75
69222;PMS7003;56514;51.816;-0.026;2023-04-06T09:31:10;0.25;0.25;0.25
69222;PMS7003;56514;51.816;-0.026;2023-04-06T09:33:57;0.00;0.00;0.00
69222;PMS7003;56514;51.816;-0.026;2023-04-06T09:36:42;0.00;0.00;0.00
69222;PMS7003;56514;51.816;-0.026;2023-04-06T09:39:27;0.00;0.00;0.00
69222;PMS7003;56514;51.816;-0.026;2023-04-06T09:42:33;0.00;0.00;0.00
69222;PMS7003;56514;51.816;-0.026;2023-04-06T09:45:17;0.75;0.75;0.25
69222;PMS7003;56514;51.816;-0.026;2023-04-06T09:48:02;0.75;0.75;0.75
69222;PMS7003;56514;51.816;-0.026;2023-04-06T09:50:49;1.00;0.00;0.00
69222;PMS7003;56514;51.816;-0.026;2023-04-06T09:53:38;0.50;0.50;0.50
69222;PMS7003;56514;51.816;-0.026;2023-04-06T09:56:34;0.00;0.00;0.00
69222;PMS7003;56514;51.816;-0.026;2023-04-06T09:59:37;0.75;0.75;0.25
69222;PMS7003;56514;51.816;-0.026;2023-04-06T10:02:32;1.00;1.00;0.75
69222;PMS7003;56514;51.816;-0.026;2023-04-06T10:05:40;1.00;1.00;0.50
69222;PMS7003;56514;51.816;-0.026;2023-04-06T10:08:31;0.50;0.50;0.50
69222;PMS7003;56514;51.816;-0.026;2023-04-06T10:11:19;0.25;0.25;0.00
69222;PMS7003;56514;51.816;-0.026;2023-04-06T10:14:05;0.25;0.25;0.25
69222;PMS7003;56514;51.816;-0.026;2023-04-06T10:16:50;0.00;0.00;0.00
69222;PMS7003;56514;51.816;-0.026;2023-04-06T10:19:42;0.00;0.00;0.00
69222;PMS7003;56514;51.816;-0.026;2023-04-06T10:22:45;0.00;0.00;0.00
69222;PMS7003;56514;51.816;-0.026;2023-04-06T10:25:51;0.00;0.00;0.00
69222;PMS7003;56514;51.816;-0.026;2023-04-06T10:28:41;0.00;0.00;0.00
69222;PMS7003;56514;51.816;-0.026;2023-04-06T10:31:27;0.00;0.00;0.00
69222;PMS7003;56514;51.816;-0.026;2023-04-06T10:34:13;0.00;0.00;0.00
69222;PMS7003;56514;51.816;-0.026;2023-04-06T10:37:10;0.00;0.00;0.00
69222;PMS7003;56514;51.816;-0.026;2023-04-06T10:40:01;0.00;0.00;0.00
69222;PMS7003;56514;51.816;-0.026;2023-04-06T10:43:11;0.00;0.00;0.00
69222;PMS7003;56514;51.816;-0.026;2023-04-06T10:46:01;1.00;1.00;1.00
69222;PMS7003;56514;51.816;-0.026;2023-04-06T10:48:46;0.00;0.00;0.00
69222;PMS7003;56514;51.816;-0.026;2023-04-06T10:51:31;0.50;0.50;0.50
69222;PMS7003;56514;51.816;-0.026;2023-04-06T10:54:17;0.00;0.00;0.00
69222;PMS7003;56514;51.816;-0.026;2023-04-06T10:57:04;0.00;0.00;0.00
69222;PMS7003;56514;51.816;-0.026;2023-04-06T10:59:49;0.25;0.25;0.25
69222;PMS7003;56514;51.816;-0.026;2023-04-06T11:02:37;0.50;0.50;0.50
69222;PMS7003;56514;51.816;-0.026;2023-04-06T11:05:22;0.00;0.00;0.00
69222;PMS7003;56514;51.816;-0.026;2023-04-06T11:08:07;1.75;1.75;1.25
69222;PMS7003;56514;51.816;-0.026;2023-04-06T11:11:03;1.00;1.00;1.00
69222;PMS7003;56514;51.816;-0.026;2023-04-06T11:13:50;0.00;0.00;0.00
69222;PMS7003;56514;51.816;-0.026;2023-04-06T11:16:37;3.25;2.75;2.00
69222;PMS7003;56514;51.816;-0.026;2023-04-06T11:19:22;1.00;1.00;1.00
69222;PMS7003;56514;51.816;-0.026;2023-04-06T11:22:07;1.75;1.75;1.75
69222;PMS7003;56514;51.816;-0.026;2023-04-06T11:25:05;0.50;0.50;0.50
69222;PMS7003;56514;51.816;-0.026;2023-04-06T11:27:51;1.00;1.00;1.00
69222;PMS7003;56514;51.816;-0.026;2023-04-06T11:30:36;1.00;1.00;1.00
69222;PMS7003;56514;51.816;-0.026;2023-04-06T11:33:21;2.50;2.50;2.00
69222;PMS7003;56514;51.816;-0.026;2023-04-06T11:36:07;2.00;2.00;1.00
69222;PMS7003;56514;51.816;-0.026;2023-04-06T11:38:52;1.00;1.00;1.00
69222;PMS7003;56514;51.816;-0.026;2023-04-06T11:41:37;1.00;1.00;1.00
69222;PMS7003;56514;51.816;-0.026;2023-04-06T11:44:29;1.00;1.00;1.00
69222;PMS7003;56514;51.816;-0.026;2023-04-06T11:47:32;0.75;0.75;0.75
69222;PMS7003;56514;51.816;-0.026;2023-04-06T11:50:18;1.00;1.00;1.00
69222;PMS7003;56514;51.816;-0.026;2023-04-06T11:53:03;1.00;1.00;1.00
69222;PMS7003;56514;51.816;-0.026;2023-04-06T11:55:49;1.00;1.00;1.00
69222;PMS7003;56514;51.816;-0.026;2023-04-06T11:58:34;1.00;1.00;1.00
69222;PMS7003;56514;51.816;-0.026;2023-04-06T12:01:19;0.00;0.00;0.00
69222;PMS7003;56514;51.816;-0.026;2023-04-06T12:04:04;0.25;0.25;0.25
69222;PMS7003;56514;51.816;-0.026;2023-04-06T12:06:49;0.00;0.00;0.00
69222;PMS7003;56514;51.816;-0.026;2023-04-06T12:09:34;0.00;0.00;0.00
69222;PMS7003;56514;51.816;-0.026;2023-04-06T12:12:20;1.00;1.00;1.00
69222;PMS7003;56514;51.816;-0.026;2023-04-06T12:15:05;0.25;0.25;0.25
69222;PMS7003;56514;51.816;-0.026;2023-04-06T12:17:51;0.00;0.00;0.00
69222;PMS7003;56514;51.816;-0.026;2023-04-06T12:20:36;0.00;0.00;0.00
69222;PMS7003;56514;51.816;-0.026;2023-04-06T12:23:20;0.00;0.00;0.00
69222;PMS7003;56514;51.816;-0.026;2023-04-06T12:26:05;0.00;0.00;0.00
69222;PMS7003;56514;51.816;-0.026;2023-04-06T12:28:50;0.50;0.50;0.50
69222;PMS7003;56514;51.816;-0.026;2023-04-06T12:31:35;0.00;0.00;0.00
69222;PMS7003;56514;51.816;-0.026;2023-04-06T12:34:21;0.00;0.00;0.00
69222;PMS7003;56514;51.816;-0.026;2023-04-06T12:37:05;0.00;0.00;0.00
69222;PMS7003;56514;51.816;-0.026;2023-04-06T12:39:50;0.00;0.00;0.00
69222;PMS7003;56514;51.816;-0.026;2023-04-06T12:42:38;0.00;0.00;0.00
69222;PMS7003;56514;51.816;-0.026;2023-04-06T12:45:23;0.25;0.25;0.25
69222;PMS7003;56514;51.816;-0.026;2023-04-06T12:48:08;0.00;0.00;0.00
69222;PMS7003;56514;51.816;-0.026;2023-04-06T12:50:56;0.00;0.00;0.00
69222;PMS7003;56514;51.816;-0.026;2023-04-06T12:53:42;0.25;0.25;0.25
69222;PMS7003;56514;51.816;-0.026;2023-04-06T12:56:27;0.00;0.00;0.00
69222;PMS7003;56514;51.816;-0.026;2023-04-06T12:59:12;0.00;0.00;0.00
69222;PMS7003;56514;51.816;-0.026;2023-04-06T13:02:01;0.25;0.25;0.25
69222;PMS7003;56514;51.816;-0.026;2023-04-06T13:04:46;1.00;1.00;1.00
69222;PMS7003;56514;51.816;-0.026;2023-04-06T13:07:31;0.00;0.00;0.00
69222;PMS7003;56514;51.816;-0.026;2023-04-06T13:10:15;0.00;0.00;0.00
69222;PMS7003;56514;51.816;-0.026;2023-04-06T13:13:01;0.00;0.00;0.00
69222;PMS7003;56514;51.816;-0.026;2023-04-06T13:15:45;0.00;0.00;0.00
69222;PMS7003;56514;51.816;-0.026;2023-04-06T13:18:32;0.50;0.50;0.50
69222;PMS7003;56514;51.816;-0.026;2023-04-06T13:21:19;0.00;0.00;0.00
69222;PMS7003;56514;51.816;-0.026;2023-04-06T13:24:05;0.00;0.00;0.00
69222;PMS7003;56514;51.816;-0.026;2023-04-06T13:26:51;0.00;0.00;0.00
69222;PMS7003;56514;51.816;-0.026;2023-04-06T13:29:36;0.00;0.00;0.00
69222;PMS7003;56514;51.816;-0.026;2023-04-06T13:32:22;0.00;0.00;0.00
69222;PMS7003;56514;51.816;-0.026;2023-04-06T13:35:07;0.00;0.00;0.00
69222;PMS7003;56514;51.816;-0.026;2023-04-06T13:37:53;0.00;0.00;0.00
69222;PMS7003;56514;51.816;-0.026;2023-04-06T13:40:38;0.00;0.00;0.00
69222;PMS7003;56514;51.816;-0.026;2023-04-06T13:43:24;0.00;0.00;0.00
69222;PMS7003;56514;51.816;-0.026;2023-04-06T13:46:11;0.00;0.00;0.00
69222;PMS7003;56514;51.816;-0.026;2023-04-06T13:48:56;0.00;0.00;0.00
69222;PMS7003;56514;51.816;-0.026;2023-04-06T13:51:41;0.00;0.00;0.00
69222;PMS7003;56514;51.816;-0.026;2023-04-06T13:54:27;0.00;0.00;0.00
69222;PMS7003;56514;51.816;-0.026;2023-04-06T13:57:13;1.00;1.00;1.00
69222;PMS7003;56514;51.816;-0.026;2023-04-06T13:59:58;0.00;0.00;0.00
69222;PMS7003;56514;51.816;-0.026;2023-04-06T14:02:43;0.00;0.00;0.00
69222;PMS7003;56514;51.816;-0.026;2023-04-06T14:05:32;0.00;0.00;0.00
69222;PMS7003;56514;51.816;-0.026;2023-04-06T14:08:17;0.00;0.00;0.00
69222;PMS7003;56514;51.816;-0.026;2023-04-06T14:11:02;0.00;0.00;0.00
69222;PMS7003;56514;51.816;-0.026;2023-04-06T14:13:47;0.00;0.00;0.00
69222;PMS7003;56514;51.816;-0.026;2023-04-06T14:16:32;0.00;0.00;0.00
69222;PMS7003;56514;51.816;-0.026;2023-04-06T14:19:17;0.00;0.00;0.00
69222;PMS7003;56514;51.816;-0.026;2023-04-06T14:22:03;0.00;0.00;0.00
69222;PMS7003;56514;51.816;-0.026;2023-04-06T14:24:49;0.00;0.00;0.00
69222;PMS7003;56514;51.816;-0.026;2023-04-06T14:27:34;0.00;0.00;0.00
69222;PMS7003;56514;51.816;-0.026;2023-04-06T14:30:19;0.00;0.00;0.00
69222;PMS7003;56514;51.816;-0.026;2023-04-06T14:33:04;0.00;0.00;0.00
69222;PMS7003;56514;51.816;-0.026;2023-04-06T14:35:49;0.00;0.00;0.00
69222;PMS7003;56514;51.816;-0.026;2023-04-06T14:38:35;0.00;0.00;0.00
69222;PMS7003;56514;51.816;-0.026;2023-04-06T14:41:22;0.00;0.00;0.00
69222;PMS7003;56514;51.816;-0.026;2023-04-06T14:44:08;0.00;0.00;0.00
69222;PMS7003;56514;51.816;-0.026;2023-04-06T14:46:56;0.00;0.00;0.00
69222;PMS7003;56514;51.816;-0.026;2023-04-06T14:49:41;0.00;0.00;0.00
69222;PMS7003;56514;51.816;-0.026;2023-04-06T14:52:26;0.00;0.00;0.00
69222;PMS7003;56514;51.816;-0.026;2023-04-06T14:55:10;0.00;0.00;0.00
69222;PMS7003;56514;51.816;-0.026;2023-04-06T14:57:56;0.00;0.00;0.00
69222;PMS7003;56514;51.816;-0.026;2023-04-06T15:00:40;0.00;0.00;0.00
69222;PMS7003;56514;51.816;-0.026;2023-04-06T15:03:26;0.00;0.00;0.00
69222;PMS7003;56514;51.816;-0.026;2023-04-06T15:06:12;0.00;0.00;0.00
69222;PMS7003;56514;51.816;-0.026;2023-04-06T15:09:00;0.00;0.00;0.00
69222;PMS7003;56514;51.816;-0.026;2023-04-06T15:11:47;0.00;0.00;0.00
69222;PMS7003;56514;51.816;-0.026;2023-04-06T15:14:32;0.00;0.00;0.00
69222;PMS7003;56514;51.816;-0.026;2023-04-06T15:17:16;0.00;0.00;0.00
69222;PMS7003;56514;51.816;-0.026;2023-04-06T15:20:02;0.00;0.00;0.00
69222;PMS7003;56514;51.816;-0.026;2023-04-06T15:22:47;0.00;0.00;0.00
69222;PMS7003;56514;51.816;-0.026;2023-04-06T15:25:32;0.00;0.00;0.00
69222;PMS7003;56514;51.816;-0.026;2023-04-06T15:28:17;0.00;0.00;0.00
69222;PMS7003;56514;51.816;-0.026;2023-04-06T15:31:02;0.00;0.00;0.00
69222;PMS7003;56514;51.816;-0.026;2023-04-06T15:33:50;0.00;0.00;0.00
69222;PMS7003;56514;51.816;-0.026;2023-04-06T15:36:34;0.00;0.00;0.00
69222;PMS7003;56514;51.816;-0.026;2023-04-06T15:39:20;0.00;0.00;0.00
69222;PMS7003;56514;51.816;-0.026;2023-04-06T15:42:05;0.00;0.00;0.00
69222;PMS7003;56514;51.816;-0.026;2023-04-06T15:44:50;0.00;0.00;0.00
69222;PMS7003;56514;51.816;-0.026;2023-04-06T15:47:35;0.00;0.00;0.00
69222;PMS7003;56514;51.816;-0.026;2023-04-06T15:50:20;0.25;0.25;0.25
69222;PMS7003;56514;51.816;-0.026;2023-04-06T15:53:05;0.00;0.00;0.00